createdAt,value
2023-03-25T00:01:34.015Z,24.90
2023-03-25T00:04:39.334Z,17.77
2023-03-25T00:07:42.496Z,14.90
2023-03-25T00:10:44.531Z,11.27
2023-03-25T00:13:48.266Z,10.43
2023-03-25T00:16:53.215Z,20.17
2023-03-25T00:19:55.940Z,16.30
2023-03-25T00:22:57.964Z,13.73
2023-03-25T00:26:00.593Z,19.30
2023-03-25T00:29:02.689Z,14.50
2023-03-25T00:32:04.931Z,18.53
2023-03-25T00:35:08.560Z,15.93
2023-03-25T00:38:38.235Z,22.30
2023-03-25T00:41:42.524Z,11.97
2023-03-25T00:44:44.540Z,13.68
2023-03-25T00:47:46.934Z,20.27
2023-03-25T00:50:49.036Z,16.17
2023-03-25T00:53:53.518Z,18.23
2023-03-25T00:56:56.853Z,19.95
2023-03-25T00:59:58.935Z,12.67
2023-03-25T01:03:04.394Z,17.67
2023-03-25T01:06:11.695Z,12.55
2023-03-25T01:09:15.358Z,14.27
2023-03-25T01:12:19.110Z,12.43
2023-03-25T01:15:21.461Z,15.20
2023-03-25T01:18:23.499Z,17.37
2023-03-25T01:21:25.583Z,22.70
2023-03-25T01:24:27.894Z,13.10
2023-03-25T01:27:30.821Z,19.00
2023-03-25T01:30:32.914Z,16.47
2023-03-25T01:33:35.265Z,17.83
2023-03-25T01:36:39.980Z,10.93
2023-03-25T01:39:44.229Z,13.63
2023-03-25T01:42:46.723Z,21.83
2023-03-25T01:45:49.216Z,25.00
2023-03-25T01:48:51.515Z,16.73
2023-03-25T01:52:04.961Z,13.27
2023-03-25T01:55:08.387Z,16.08
2023-03-25T01:58:15.527Z,16.13
2023-03-25T02:01:21.904Z,13.33
2023-03-25T02:04:39.355Z,14.27
2023-03-25T02:07:43.098Z,16.87
2023-03-25T02:10:47.129Z,20.03
2023-03-25T02:13:49.158Z,16.85
2023-03-25T02:17:18.840Z,17.27
2023-03-25T02:20:59.573Z,11.60
2023-03-25T02:24:35.455Z,15.33
2023-03-25T02:28:25.921Z,14.33
2023-03-25T02:31:55.388Z,11.87
2023-03-25T02:35:00.295Z,16.00
2023-03-25T02:38:27.790Z,12.00
2023-03-25T02:41:47.244Z,14.40
2023-03-25T02:44:58.253Z,16.60
2023-03-25T02:48:11.786Z,22.90
2023-03-25T02:51:21.436Z,18.52
2023-03-25T02:54:25.942Z,13.90
2023-03-25T02:57:31.115Z,17.33
2023-03-25T03:00:34.586Z,14.33
2023-03-25T03:03:37.210Z,15.43
2023-03-25T03:06:41.864Z,16.83
2023-03-25T03:13:06.374Z,16.97
2023-03-25T03:16:17.631Z,14.33
2023-03-25T03:19:28.668Z,11.23
2023-03-25T03:22:52.859Z,15.30
2023-03-25T03:26:04.681Z,13.33
2023-03-25T03:29:32.293Z,12.70
2023-03-25T03:32:48.568Z,13.73
2023-03-25T03:36:02.365Z,16.37
2023-03-25T03:39:16.913Z,21.87
2023-03-25T03:42:34.173Z,14.38
2023-03-25T03:45:48.677Z,13.77
2023-03-25T03:48:57.467Z,15.75
2023-03-25T03:52:10.754Z,12.37
2023-03-25T03:55:29.333Z,11.90
2023-03-25T03:58:35.760Z,10.67
2023-03-25T04:01:46.446Z,12.77
2023-03-25T04:04:48.635Z,17.97
2023-03-25T04:08:03.910Z,13.67
2023-03-25T04:11:10.577Z,17.38
2023-03-25T04:14:14.207Z,18.10
2023-03-25T04:17:16.264Z,9.60
2023-03-25T04:20:29.853Z,19.63
2023-03-25T04:23:32.064Z,20.57
2023-03-25T04:26:37.960Z,13.03
2023-03-25T04:29:44.122Z,15.47
2023-03-25T04:32:47.538Z,15.03
2023-03-25T04:35:51.664Z,27.40
2023-03-25T04:38:53.929Z,15.73
2023-03-25T04:42:03.582Z,15.47
2023-03-25T04:45:07.638Z,8.47
2023-03-25T04:48:22.516Z,12.30
2023-03-25T04:51:24.506Z,11.07
2023-03-25T04:54:26.642Z,14.53
2023-03-25T04:57:28.679Z,15.43
2023-03-25T05:00:30.677Z,16.53
2023-03-25T05:03:33.781Z,11.33
2023-03-25T05:06:40.751Z,16.70
2023-03-25T05:09:42.806Z,13.50
2023-03-25T05:12:44.944Z,11.73
2023-03-25T05:16:10.075Z,21.13
2023-03-25T05:19:13.215Z,31.07
2023-03-25T05:22:20.425Z,15.40
2023-03-25T05:25:22.845Z,28.17
2023-03-25T05:28:24.863Z,22.97
2023-03-25T05:31:26.916Z,16.17
2023-03-25T05:34:30.049Z,13.10
2023-03-25T05:37:33.123Z,18.33
2023-03-25T05:40:36.302Z,18.97
2023-03-25T05:43:38.772Z,19.30
2023-03-25T05:46:41.040Z,14.20
2023-03-25T05:49:44.260Z,10.53
2023-03-25T05:52:49.587Z,19.87
2023-03-25T05:55:52.583Z,16.13
2023-03-25T05:58:54.907Z,19.83
2023-03-25T06:01:57.993Z,15.17
2023-03-25T06:05:02.838Z,16.83
2023-03-25T06:08:04.911Z,17.67
2023-03-25T06:11:09.304Z,10.60
2023-03-25T06:14:11.377Z,22.20
2023-03-25T06:17:19.153Z,8.27
2023-03-25T06:20:21.703Z,22.50
2023-03-25T06:23:25.051Z,12.93
2023-03-25T06:26:27.789Z,25.23
2023-03-25T06:29:29.894Z,21.93
2023-03-25T06:32:32.133Z,18.20
2023-03-25T06:35:34.174Z,12.63
2023-03-25T06:38:36.280Z,19.63
2023-03-25T06:41:38.452Z,27.10
2023-03-25T06:44:40.471Z,13.33
2023-03-25T06:47:42.651Z,24.63
2023-03-25T06:50:45.876Z,19.90
2023-03-25T06:53:47.959Z,26.53
2023-03-25T06:56:50.128Z,17.77
2023-03-25T06:59:52.190Z,14.23
2023-03-25T07:02:54.738Z,20.07
2023-03-25T07:05:56.922Z,18.87
2023-03-25T07:08:58.938Z,15.63
2023-03-25T07:12:01.877Z,22.30
2023-03-25T07:15:04.146Z,22.27
2023-03-25T07:18:06.252Z,17.93
2023-03-25T07:21:10.285Z,15.43
2023-03-25T07:24:12.523Z,14.70
2023-03-25T07:27:15.871Z,27.08
2023-03-25T07:30:17.981Z,24.20
2023-03-25T07:33:20.060Z,26.15
2023-03-25T07:36:23.768Z,16.30
2023-03-25T07:39:26.392Z,13.85
2023-03-25T07:42:28.460Z,21.90
2023-03-25T07:45:30.564Z,19.35
2023-03-25T07:48:45.931Z,22.75
2023-03-25T07:51:48.017Z,13.95
2023-03-25T07:54:50.435Z,14.05
2023-03-25T07:57:52.539Z,23.98
2023-03-25T08:00:58.157Z,19.55
2023-03-25T08:04:00.428Z,14.55
2023-03-25T08:07:02.721Z,17.75
2023-03-25T08:10:05.030Z,13.02
2023-03-25T08:13:07.145Z,20.73
2023-03-25T08:16:13.583Z,13.45
2023-03-25T08:19:15.740Z,14.55
2023-03-25T08:22:17.695Z,15.48
2023-03-25T08:25:19.687Z,21.10
2023-03-25T08:28:24.256Z,13.30
2023-03-25T08:31:31.197Z,14.60
2023-03-25T08:34:39.572Z,18.90
2023-03-25T08:37:41.565Z,18.10
2023-03-25T08:40:44.338Z,17.90
2023-03-25T08:43:47.670Z,17.10
2023-03-25T08:46:49.671Z,12.70
2023-03-25T08:49:51.781Z,18.70
2023-03-25T08:52:57.611Z,10.30
2023-03-25T08:56:00.268Z,16.38
2023-03-25T08:59:03.329Z,16.38
2023-03-25T09:02:05.995Z,16.52
2023-03-25T09:05:10.954Z,18.92
2023-03-25T09:08:13.566Z,17.45
2023-03-25T09:11:19.857Z,11.65
2023-03-25T09:14:31.292Z,8.70
2023-03-25T09:17:33.353Z,13.20
2023-03-25T09:20:35.674Z,9.57
2023-03-25T09:23:37.783Z,12.57
2023-03-25T09:26:40.063Z,10.77
2023-03-25T09:29:42.591Z,17.05
2023-03-25T09:32:45.276Z,12.47
2023-03-25T09:35:47.491Z,15.57
2023-03-25T09:38:49.841Z,17.27
2023-03-25T09:41:57.762Z,10.73
2023-03-25T09:45:11.830Z,17.35
2023-03-25T09:48:46.113Z,15.02
2023-03-25T09:51:51.336Z,14.50
2023-03-25T09:54:59.558Z,12.82
2023-03-25T09:58:20.986Z,13.00
2023-03-25T10:01:35.039Z,11.48
2023-03-25T10:05:07.699Z,12.95
2023-03-25T10:08:15.373Z,14.35
2023-03-25T10:11:36.101Z,9.88
2023-03-25T10:14:50.316Z,12.15
2023-03-25T10:18:05.452Z,13.73
2023-03-25T10:21:20.529Z,9.90
2023-03-25T10:25:06.106Z,13.63
2023-03-25T10:28:15.623Z,11.63
2023-03-25T10:31:22.206Z,17.85
2023-03-25T10:34:49.884Z,13.10
2023-03-25T10:38:13.968Z,16.58
2023-03-25T10:41:31.238Z,10.80
2023-03-25T10:44:33.425Z,10.25
2023-03-25T10:47:40.192Z,9.93
2023-03-25T10:50:43.488Z,16.35
2023-03-25T10:53:50.193Z,7.68
2023-03-25T10:56:55.452Z,10.32
2023-03-25T11:00:20.991Z,15.20
2023-03-25T11:03:32.164Z,11.30
2023-03-25T11:06:37.744Z,9.48
2023-03-25T11:09:40.932Z,16.23
2023-03-25T11:12:45.437Z,11.00
2023-03-25T11:15:47.881Z,8.57
2023-03-25T11:18:53.804Z,8.02
2023-03-25T11:22:02.926Z,5.30
2023-03-25T11:25:19.581Z,8.77
2023-03-25T11:28:36.212Z,10.65
2023-03-25T11:31:39.648Z,9.63
2023-03-25T11:34:42.424Z,6.88
2023-03-25T11:37:54.249Z,6.13
2023-03-25T11:41:00.116Z,14.60
2023-03-25T11:44:07.101Z,9.50
2023-03-25T11:47:11.909Z,7.90
2023-03-25T11:50:28.747Z,8.50
2023-03-25T11:53:33.382Z,7.80
2023-03-25T11:56:39.047Z,6.53
2023-03-25T11:59:46.417Z,10.80
2023-03-25T12:03:00.309Z,6.45
2023-03-25T12:06:23.979Z,7.68
2023-03-25T12:09:30.273Z,12.93
2023-03-25T12:12:43.371Z,13.48
2023-03-25T12:16:07.458Z,10.25
2023-03-25T12:19:39.874Z,12.27
2023-03-25T12:22:50.324Z,8.75
2023-03-25T12:26:34.830Z,10.88
2023-03-25T12:29:50.398Z,9.48
2023-03-25T12:33:18.222Z,11.40
2023-03-25T12:36:30.702Z,9.90
2023-03-25T12:40:05.529Z,8.43
2023-03-25T12:43:12.033Z,13.52
2023-03-25T12:46:34.365Z,8.43
2023-03-25T12:50:00.448Z,10.93
2023-03-25T12:53:26.663Z,6.05
2023-03-25T12:57:16.084Z,11.10
2023-03-25T13:00:33.004Z,14.38
2023-03-25T13:04:01.646Z,12.23
2023-03-25T13:07:17.856Z,10.50
2023-03-25T13:10:28.232Z,10.95
2023-03-25T13:13:34.318Z,8.50
2023-03-25T13:16:37.667Z,7.57
2023-03-25T13:19:43.939Z,16.10
2023-03-25T13:22:55.138Z,12.43
2023-03-25T13:26:03.637Z,8.20
2023-03-25T13:29:12.270Z,13.15
2023-03-25T13:32:58.264Z,7.72
2023-03-25T13:36:35.943Z,19.45
2023-03-25T13:40:01.246Z,20.33
2023-03-25T13:43:16.367Z,19.10
2023-03-25T13:46:44.113Z,16.67
2023-03-25T13:49:52.198Z,14.75
2023-03-25T13:53:03.708Z,18.98
2023-03-25T13:56:47.405Z,16.42
2023-03-25T14:00:23.044Z,10.70
2023-03-25T14:03:48.097Z,10.05
2023-03-25T14:07:21.386Z,10.98
2023-03-25T14:10:29.769Z,12.32
2023-03-25T14:13:37.978Z,11.38
2023-03-25T14:16:45.277Z,6.10
2023-03-25T14:19:55.378Z,11.25
2023-03-25T14:23:02.060Z,6.70
2023-03-25T14:26:08.509Z,12.00
2023-03-25T14:29:28.298Z,11.05
2023-03-25T14:32:33.546Z,5.95
2023-03-25T14:35:38.214Z,9.15
2023-03-25T14:38:54.601Z,8.32
2023-03-25T14:42:03.831Z,4.55
2023-03-25T14:45:42.452Z,9.43
2023-03-25T14:49:21.936Z,7.88
2023-03-25T14:52:45.340Z,5.15
2023-03-25T14:55:47.995Z,6.82
2023-03-25T14:58:57.361Z,6.25
2023-03-25T15:02:15.150Z,7.75
2023-03-25T15:05:28.807Z,7.03
2023-03-25T15:08:41.993Z,8.48
2023-03-25T15:12:05.156Z,6.38
2023-03-25T15:15:30.081Z,8.98
2023-03-25T15:18:32.216Z,9.60
2023-03-25T15:21:55.596Z,11.75
2023-03-25T15:25:00.344Z,11.65
2023-03-25T15:28:11.280Z,7.38
2023-03-25T15:31:40.934Z,8.30
2023-03-25T15:34:55.167Z,5.20
2023-03-25T15:37:57.261Z,3.95
2023-03-25T15:40:59.222Z,5.65
2023-03-25T15:44:23.008Z,10.60
2023-03-25T15:47:47.237Z,6.83
2023-03-25T15:50:50.010Z,8.15
2023-03-25T15:54:16.345Z,9.00
2023-03-25T15:57:32.048Z,2.40
2023-03-25T16:00:40.738Z,6.47
2023-03-25T16:03:44.950Z,9.25
2023-03-25T16:06:53.151Z,8.23
2023-03-25T16:09:55.689Z,12.63
2023-03-25T16:12:57.781Z,9.68
2023-03-25T16:15:59.970Z,9.15
2023-03-25T16:19:04.859Z,8.32
2023-03-25T16:22:32.933Z,10.98
2023-03-25T16:25:39.125Z,6.60
2023-03-25T16:28:46.506Z,2.95
2023-03-25T16:32:01.636Z,1.55
2023-03-25T16:35:06.093Z,2.60
2023-03-25T16:38:13.299Z,1.25
2023-03-25T16:41:15.865Z,3.25
2023-03-25T16:44:23.646Z,13.48
2023-03-25T16:47:26.956Z,5.88
2023-03-25T16:50:29.001Z,1.27
2023-03-25T16:53:35.283Z,0.40
2023-03-25T16:56:39.212Z,5.97
2023-03-25T16:59:42.161Z,1.42
2023-03-25T17:02:46.306Z,3.30
2023-03-25T17:09:05.178Z,2.25
2023-03-25T17:12:27.533Z,3.70
2023-03-25T17:15:34.700Z,3.05
2023-03-25T17:18:39.232Z,3.30
2023-03-25T17:22:16.603Z,2.10
2023-03-25T17:25:32.476Z,1.95
2023-03-25T17:28:51.579Z,3.97
2023-03-25T17:31:58.593Z,3.47
2023-03-25T17:35:06.945Z,2.90
2023-03-25T17:38:18.176Z,1.58
2023-03-25T17:41:21.464Z,1.92
2023-03-25T17:44:23.589Z,2.30
2023-03-25T17:47:26.268Z,5.25
2023-03-25T17:50:33.244Z,4.28
2023-03-25T17:53:35.360Z,4.25
2023-03-25T17:56:38.726Z,1.40
2023-03-25T17:59:43.893Z,5.13
2023-03-25T18:02:46.860Z,1.45
2023-03-25T18:05:53.572Z,3.38
2023-03-25T18:08:55.653Z,2.90
2023-03-25T18:11:57.974Z,5.93
2023-03-25T18:14:59.979Z,6.07
2023-03-25T18:18:02.355Z,5.97
2023-03-25T18:21:04.901Z,4.30
2023-03-25T18:24:07.709Z,3.78
2023-03-25T18:27:14.637Z,5.88
2023-03-25T18:30:29.936Z,3.35
2023-03-25T18:33:34.791Z,1.33
2023-03-25T18:36:37.638Z,1.77
2023-03-25T18:39:39.868Z,2.22
2023-03-25T18:42:42.532Z,4.82
2023-03-25T18:45:46.974Z,3.58
2023-03-25T18:48:49.135Z,3.22
2023-03-25T18:51:51.477Z,2.08
2023-03-25T18:54:53.527Z,5.57
2023-03-25T18:57:56.328Z,3.95
2023-03-25T19:00:59.489Z,1.52
2023-03-25T19:04:02.542Z,2.90
2023-03-25T19:07:04.815Z,2.60
2023-03-25T19:10:11.870Z,5.25
2023-03-25T19:13:14.625Z,1.42
2023-03-25T19:16:16.916Z,4.25
2023-03-25T19:19:19.062Z,4.20
2023-03-25T19:22:21.228Z,3.38
2023-03-25T19:25:23.253Z,5.28
2023-03-25T19:28:26.670Z,3.55
2023-03-25T19:31:29.788Z,4.88
2023-03-25T19:34:32.125Z,12.23
2023-03-25T19:37:35.463Z,11.00
2023-03-25T19:40:38.422Z,8.95
2023-03-25T19:43:41.173Z,7.10
2023-03-25T19:46:43.512Z,5.43
2023-03-25T19:49:46.380Z,5.80
2023-03-25T19:52:50.983Z,3.75
2023-03-25T19:55:53.956Z,4.32
2023-03-25T19:58:56.785Z,4.05
2023-03-25T20:02:08.584Z,3.85
2023-03-25T20:05:25.605Z,7.90
2023-03-25T20:08:41.528Z,3.60
2023-03-25T20:11:44.856Z,8.18
2023-03-25T20:14:46.890Z,5.78
2023-03-25T20:17:53.360Z,4.03
2023-03-25T20:20:55.752Z,7.85
2023-03-25T20:23:58.065Z,5.85
2023-03-25T20:27:01.323Z,13.93
2023-03-25T20:30:08.734Z,7.13
2023-03-25T20:33:11.244Z,6.40
2023-03-25T20:36:13.478Z,5.78
2023-03-25T20:39:15.717Z,14.80
2023-03-25T20:42:19.275Z,3.77
2023-03-25T20:45:21.718Z,7.35
2023-03-25T20:48:25.742Z,3.10
2023-03-25T20:51:28.452Z,5.07
2023-03-25T20:54:31.644Z,18.48
2023-03-25T20:57:34.228Z,4.50
2023-03-25T21:00:36.788Z,11.00
2023-03-25T21:06:43.365Z,4.45
2023-03-25T21:09:47.853Z,3.17
2023-03-25T21:15:55.028Z,5.03
2023-03-25T21:19:01.858Z,7.22
2023-03-25T21:22:04.396Z,5.22
2023-03-25T21:25:06.849Z,6.45
2023-03-25T21:28:09.465Z,12.82
2023-03-25T21:31:17.208Z,5.15
2023-03-25T21:34:20.183Z,3.00
2023-03-25T21:37:22.258Z,3.72
2023-03-25T21:40:27.320Z,5.88
2023-03-25T21:43:42.653Z,4.32
2023-03-25T21:46:44.681Z,5.07
2023-03-25T21:49:46.776Z,3.97
2023-03-25T21:52:48.816Z,4.95
2023-03-25T21:55:55.493Z,9.25
2023-03-25T21:58:58.377Z,4.82
2023-03-25T22:02:00.449Z,3.45
2023-03-25T22:05:03.889Z,2.75
2023-03-25T22:08:06.908Z,5.10
2023-03-25T22:11:14.300Z,5.57
2023-03-25T22:14:19.639Z,7.03
2023-03-25T22:17:21.973Z,4.57
2023-03-25T22:20:24.186Z,10.30
2023-03-25T22:23:26.189Z,5.30
2023-03-25T22:26:30.305Z,4.68
2023-03-25T22:29:35.230Z,6.70
2023-03-25T22:32:37.482Z,3.75
2023-03-25T22:35:41.101Z,7.35
2023-03-25T22:38:46.629Z,10.50
2023-03-25T22:41:48.725Z,2.60
2023-03-25T22:44:50.861Z,4.43
2023-03-25T22:47:54.150Z,10.82
2023-03-25T22:50:57.017Z,6.78
2023-03-25T22:53:59.026Z,5.90
2023-03-25T23:00:14.404Z,5.13
2023-03-25T23:03:16.730Z,6.50
2023-03-25T23:06:19.035Z,9.63
2023-03-25T23:09:41.078Z,8.25
2023-03-25T23:12:43.157Z,13.57
2023-03-25T23:15:46.270Z,8.43
2023-03-25T23:18:48.629Z,8.05
2023-03-25T23:21:50.674Z,8.57
2023-03-25T23:24:52.768Z,11.32
2023-03-25T23:27:58.144Z,8.35
2023-03-25T23:31:02.613Z,6.30
2023-03-25T23:37:09.372Z,12.90
2023-03-25T23:40:12.694Z,7.43
2023-03-25T23:43:16.503Z,8.65
2023-03-25T23:46:21.427Z,8.43
2023-03-25T23:49:23.494Z,10.35
2023-03-25T23:52:25.614Z,10.68
2023-03-25T23:55:27.875Z,10.95
2023-03-25T23:58:32.415Z,7.85
